createdAt,value
2019-05-26T00:01:34.069Z,61.74
2019-05-26T00:04:06.845Z,59.49
2019-05-26T00:06:40.063Z,56.67
2019-05-26T00:09:11.879Z,57.09
2019-05-26T00:11:43.617Z,57.98
2019-05-26T00:14:15.349Z,59.14
2019-05-26T00:16:47.078Z,60.50
2019-05-26T00:19:18.891Z,61.30
2019-05-26T00:21:50.653Z,64.41
2019-05-26T00:24:22.411Z,63.29
2019-05-26T00:26:54.155Z,61.12
2019-05-26T00:29:25.920Z,58.85
2019-05-26T00:31:57.683Z,55.99
2019-05-26T00:34:29.974Z,56.36
2019-05-26T00:37:01.817Z,57.58
2019-05-26T00:39:33.744Z,58.04
2019-05-26T00:42:06.056Z,59.26
2019-05-26T00:44:37.719Z,60.61
2019-05-26T00:47:09.469Z,61.56
2019-05-26T00:49:41.219Z,62.68
2019-05-26T00:52:12.973Z,64.84
2019-05-26T00:54:44.750Z,63.13
2019-05-26T00:57:16.486Z,60.70
2019-05-26T00:59:48.274Z,57.78
2019-05-26T01:02:20.031Z,55.59
2019-05-26T01:04:51.776Z,56.17
2019-05-26T01:07:24.753Z,56.91
2019-05-26T01:09:56.509Z,58.17
2019-05-26T01:12:28.249Z,59.39
2019-05-26T01:15:01.237Z,60.05
2019-05-26T01:17:34.690Z,60.42
2019-05-26T01:20:08.055Z,61.66
2019-05-26T01:22:42.842Z,62.19
2019-05-26T01:25:15.889Z,64.95
2019-05-26T01:27:48.607Z,63.05
2019-05-26T01:30:24.576Z,59.92
2019-05-26T01:32:56.412Z,57.79
2019-05-26T01:35:28.258Z,55.69
2019-05-26T01:38:00.834Z,55.92
2019-05-26T01:40:41.683Z,56.94
2019-05-26T01:43:13.905Z,57.92
2019-05-26T01:45:45.632Z,58.90
2019-05-26T01:48:17.461Z,59.80
2019-05-26T01:50:50.433Z,61.08
2019-05-26T01:53:22.167Z,61.80
2019-05-26T01:55:54.616Z,62.54
2019-05-26T01:58:26.352Z,65.47
2019-05-26T02:00:58.090Z,63.74
2019-05-26T02:03:32.555Z,61.47
2019-05-26T02:06:05.605Z,58.13
2019-05-26T02:08:39.773Z,55.60
2019-05-26T02:11:10.671Z,56.20
2019-05-26T02:13:42.382Z,56.94
2019-05-26T02:16:14.109Z,57.74
2019-05-26T02:18:45.957Z,58.66
2019-05-26T02:21:17.694Z,60.26
2019-05-26T02:23:49.445Z,61.02
2019-05-26T02:26:21.181Z,61.94
2019-05-26T02:28:53.643Z,62.68
2019-05-26T02:31:25.286Z,64.40
2019-05-26T02:33:57.130Z,62.70
2019-05-26T02:36:29.022Z,60.54
2019-05-26T02:39:03.329Z,58.26
2019-05-26T02:41:34.197Z,55.97
2019-05-26T02:44:06.699Z,56.29
2019-05-26T02:46:38.347Z,57.35
2019-05-26T02:49:10.071Z,58.66
2019-05-26T02:51:41.814Z,59.67
2019-05-26T02:54:13.637Z,60.32
2019-05-26T02:56:45.393Z,60.85
2019-05-26T02:59:17.156Z,61.61
2019-05-26T03:02:02.396Z,62.43
2019-05-26T03:04:22.507Z,64.33
2019-05-26T03:06:55.634Z,62.54
2019-05-26T03:09:29.969Z,60.36
2019-05-26T03:12:03.402Z,58.33
2019-05-26T03:14:35.858Z,55.62
2019-05-26T03:17:07.909Z,55.86
2019-05-26T03:19:41.941Z,56.92
2019-05-26T03:22:15.660Z,57.37
2019-05-26T03:24:52.107Z,59.06
2019-05-26T03:27:24.432Z,60.21
2019-05-26T03:29:56.065Z,60.95
2019-05-26T03:32:27.870Z,61.65
2019-05-26T03:34:59.525Z,62.63
2019-05-26T03:37:31.267Z,64.00
2019-05-26T03:40:03.585Z,62.83
2019-05-26T03:42:35.731Z,60.92
2019-05-26T03:45:09.879Z,57.99
2019-05-26T03:47:41.771Z,55.41
2019-05-26T03:50:13.746Z,55.85
2019-05-26T03:52:45.608Z,56.67
2019-05-26T03:55:17.438Z,57.52
2019-05-26T03:57:49.100Z,58.17
2019-05-26T04:00:21.085Z,59.38
2019-05-26T04:02:52.942Z,60.56
2019-05-26T04:05:24.675Z,60.67
2019-05-26T04:07:56.480Z,61.60
2019-05-26T04:10:28.133Z,63.55
2019-05-26T04:12:59.882Z,63.47
2019-05-26T04:15:31.710Z,61.54
2019-05-26T04:18:03.505Z,59.17
2019-05-26T04:20:35.196Z,56.44
2019-05-26T04:23:06.936Z,56.66
2019-05-26T04:25:38.676Z,57.47
2019-05-26T04:28:10.516Z,58.72
2019-05-26T04:30:42.272Z,59.01
2019-05-26T04:33:14.006Z,60.14
2019-05-26T04:35:45.738Z,60.84
2019-05-26T04:38:17.470Z,61.50
2019-05-26T04:40:49.315Z,62.32
2019-05-26T04:43:21.052Z,63.32
2019-05-26T04:45:52.791Z,61.17
2019-05-26T04:48:24.524Z,58.10
2019-05-26T04:50:57.583Z,55.91
2019-05-26T04:53:30.503Z,56.61
2019-05-26T04:56:02.254Z,57.56
2019-05-26T04:58:33.981Z,58.29
2019-05-26T05:01:05.907Z,58.79
2019-05-26T05:03:37.537Z,59.52
2019-05-26T05:06:09.272Z,59.97
2019-05-26T05:08:41.139Z,60.47
2019-05-26T05:11:12.856Z,61.03
2019-05-26T05:13:44.598Z,61.23
2019-05-26T05:16:17.608Z,61.67
2019-05-26T05:18:49.344Z,61.19
2019-05-26T05:21:21.074Z,61.39
2019-05-26T05:23:52.807Z,61.43
2019-05-26T05:26:24.665Z,61.95
2019-05-26T05:28:56.402Z,61.82
2019-05-26T05:31:28.161Z,61.47
2019-05-26T05:33:59.895Z,60.52
2019-05-26T05:36:31.626Z,59.41
2019-05-26T05:39:04.408Z,60.67
2019-05-26T05:41:36.350Z,58.69
2019-05-26T05:44:08.182Z,59.77
2019-05-26T05:46:41.562Z,59.56
2019-05-26T05:49:13.193Z,59.82
2019-05-26T05:51:44.731Z,60.31
2019-05-26T05:54:16.359Z,60.46
2019-05-26T05:56:48.197Z,60.10
2019-05-26T05:59:19.924Z,59.57
2019-05-26T06:01:51.658Z,59.39
2019-05-26T06:04:23.398Z,59.77
2019-05-26T06:06:55.231Z,58.00
2019-05-26T06:09:26.956Z,58.31
2019-05-26T06:11:58.709Z,57.79
2019-05-26T06:14:30.431Z,57.58
2019-05-26T06:17:02.276Z,57.47
2019-05-26T06:19:33.807Z,57.75
2019-05-26T06:22:06.083Z,57.45
2019-05-26T06:24:38.824Z,57.15
2019-05-26T06:27:10.463Z,56.18
2019-05-26T06:29:57.940Z,55.81
2019-05-26T06:32:16.082Z,56.44
2019-05-26T06:34:47.944Z,56.50
2019-05-26T06:37:19.670Z,55.73
2019-05-26T06:39:51.462Z,55.65
2019-05-26T06:42:23.270Z,55.43
2019-05-26T06:44:54.991Z,53.00
2019-05-26T06:47:26.727Z,51.29
2019-05-26T06:49:59.984Z,50.07
2019-05-26T06:52:31.728Z,49.71
2019-05-26T06:55:04.028Z,48.63
2019-05-26T06:57:35.863Z,42.60
2019-05-26T07:00:08.823Z,42.36
2019-05-26T07:02:41.565Z,39.99
2019-05-26T07:05:18.075Z,37.09
2019-05-26T07:07:47.501Z,34.06
2019-05-26T07:10:23.860Z,31.62
2019-05-26T07:12:57.099Z,32.98
2019-05-26T07:15:29.839Z,31.08
2019-05-26T07:18:03.655Z,29.60
2019-05-26T07:20:37.781Z,28.81
2019-05-26T07:23:11.013Z,29.58
2019-05-26T07:25:45.030Z,28.63
2019-05-26T07:28:16.760Z,29.29
2019-05-26T07:30:48.391Z,27.69
2019-05-26T07:33:20.295Z,26.36
2019-05-26T07:35:52.221Z,27.01
2019-05-26T07:38:24.360Z,28.74
2019-05-26T07:40:56.384Z,28.20
2019-05-26T07:43:28.418Z,25.91
2019-05-26T07:46:00.466Z,27.25
2019-05-26T07:48:35.817Z,26.84
2019-05-26T07:51:07.194Z,25.67
2019-05-26T07:53:46.916Z,25.14
2019-05-26T07:56:30.139Z,26.47
2019-05-26T07:59:03.619Z,25.91
2019-05-26T08:01:38.127Z,26.41
2019-05-26T08:04:12.208Z,25.14
2019-05-26T08:06:45.037Z,24.65
2019-05-26T08:09:19.492Z,25.69
2019-05-26T08:11:51.029Z,25.94
2019-05-26T08:14:23.057Z,25.68
2019-05-26T08:16:56.069Z,25.73
2019-05-26T08:19:27.796Z,25.90
2019-05-26T08:21:59.524Z,26.29
2019-05-26T08:24:31.277Z,26.86
2019-05-26T08:27:03.135Z,26.97
2019-05-26T08:29:43.384Z,28.78
2019-05-26T08:32:16.792Z,29.26
2019-05-26T08:34:49.743Z,30.27
2019-05-26T08:37:21.746Z,30.70
2019-05-26T08:39:53.480Z,30.99
2019-05-26T08:42:28.903Z,32.34
2019-05-26T08:44:58.865Z,30.70
2019-05-26T08:47:34.646Z,31.19
2019-05-26T08:50:14.310Z,32.67
2019-05-26T08:52:49.174Z,32.59
2019-05-26T08:55:29.110Z,32.15
2019-05-26T08:58:01.741Z,32.74
2019-05-26T09:00:33.723Z,34.06
2019-05-26T09:03:06.917Z,34.07
2019-05-26T09:05:38.777Z,33.77
2019-05-26T09:08:10.481Z,34.47
2019-05-26T09:10:45.868Z,34.04
2019-05-26T09:13:19.230Z,34.97
2019-05-26T09:15:52.181Z,34.90
2019-05-26T09:18:25.797Z,35.43
2019-05-26T09:20:58.470Z,36.24
2019-05-26T09:23:34.284Z,35.07
2019-05-26T09:26:06.185Z,36.13
2019-05-26T09:28:39.522Z,36.03
2019-05-26T09:31:14.030Z,35.75
2019-05-26T09:33:46.020Z,35.38
2019-05-26T09:36:17.645Z,35.65
2019-05-26T09:38:50.887Z,35.97
2019-05-26T09:41:23.889Z,35.92
2019-05-26T09:43:55.429Z,36.90
2019-05-26T09:46:27.180Z,36.51
2019-05-26T09:49:00.905Z,36.37
2019-05-26T09:51:32.553Z,36.46
2019-05-26T09:54:04.324Z,36.69
2019-05-26T09:56:37.223Z,37.52
2019-05-26T09:59:11.156Z,37.27
2019-05-26T10:01:45.114Z,36.78
2019-05-26T10:04:16.861Z,37.33
2019-05-26T10:06:51.587Z,36.86
2019-05-26T10:09:26.778Z,36.35
2019-05-26T10:12:00.028Z,36.62
2019-05-26T10:14:35.549Z,36.81
2019-05-26T10:17:12.929Z,36.66
2019-05-26T10:19:45.759Z,36.73
2019-05-26T10:22:17.592Z,36.57
2019-05-26T10:24:49.352Z,37.34
2019-05-26T10:27:21.086Z,36.54
2019-05-26T10:29:52.984Z,36.00
2019-05-26T10:32:24.651Z,37.31
2019-05-26T10:34:57.333Z,37.84
2019-05-26T10:37:30.176Z,37.33
2019-05-26T10:40:02.137Z,38.77
2019-05-26T10:42:33.778Z,36.74
2019-05-26T10:45:09.215Z,36.06
2019-05-26T10:47:41.062Z,37.50
2019-05-26T10:50:13.588Z,37.13
2019-05-26T10:52:45.433Z,37.80
2019-05-26T10:55:19.213Z,36.18
2019-05-26T10:57:50.848Z,36.41
2019-05-26T11:00:22.885Z,36.19
2019-05-26T11:02:54.938Z,36.38
2019-05-26T11:05:26.661Z,36.95
2019-05-26T11:07:58.501Z,37.14
2019-05-26T11:10:30.251Z,34.81
2019-05-26T11:13:02.003Z,36.96
2019-05-26T11:15:33.726Z,36.51
2019-05-26T11:18:06.133Z,36.80
2019-05-26T11:20:37.659Z,35.52
2019-05-26T11:23:09.301Z,36.02
2019-05-26T11:25:42.609Z,36.27
2019-05-26T11:28:15.180Z,36.06
2019-05-26T11:30:46.816Z,36.74
2019-05-26T11:33:18.463Z,36.18
2019-05-26T11:35:50.297Z,34.57
2019-05-26T11:38:22.051Z,34.87
2019-05-26T11:40:53.844Z,34.99
2019-05-26T11:43:25.496Z,35.85
2019-05-26T11:45:57.336Z,35.02
2019-05-26T11:48:30.985Z,34.69
2019-05-26T11:51:04.268Z,34.88
2019-05-26T11:53:35.910Z,34.90
2019-05-26T11:56:07.751Z,35.56
2019-05-26T11:58:39.501Z,35.60
2019-05-26T12:01:11.237Z,35.53
2019-05-26T12:03:42.959Z,34.71
2019-05-26T12:06:14.700Z,35.59
2019-05-26T12:08:46.530Z,35.92
2019-05-26T12:11:18.275Z,35.54
2019-05-26T12:13:50.002Z,36.04
2019-05-26T12:16:21.747Z,35.11
2019-05-26T12:18:53.470Z,36.49
2019-05-26T12:21:25.304Z,36.77
2019-05-26T12:23:57.030Z,36.70
2019-05-26T12:26:28.771Z,34.69
2019-05-26T12:29:00.601Z,35.28
2019-05-26T12:31:32.334Z,34.84
2019-05-26T12:34:04.062Z,35.60
2019-05-26T12:36:39.254Z,35.90
2019-05-26T12:39:10.489Z,36.22
2019-05-26T12:41:42.135Z,35.39
2019-05-26T12:44:13.856Z,34.61
2019-05-26T12:46:45.839Z,34.98
2019-05-26T12:49:17.674Z,34.77
2019-05-26T12:51:49.507Z,34.60
2019-05-26T12:54:22.098Z,35.12
2019-05-26T12:56:53.636Z,35.15
2019-05-26T12:59:25.364Z,34.97
2019-05-26T13:01:57.101Z,34.45
2019-05-26T13:04:28.837Z,33.35
2019-05-26T13:07:00.675Z,33.26
2019-05-26T13:09:35.637Z,32.44
2019-05-26T13:12:09.871Z,34.47
2019-05-26T13:14:44.391Z,34.79
2019-05-26T13:17:15.910Z,34.22
2019-05-26T13:19:47.729Z,34.70
2019-05-26T13:22:20.342Z,34.60
2019-05-26T13:24:53.821Z,34.48
2019-05-26T13:27:25.538Z,34.80
2019-05-26T13:29:57.165Z,34.92
2019-05-26T13:32:44.443Z,33.78
2019-05-26T13:35:16.962Z,33.61
2019-05-26T13:37:51.781Z,34.23
2019-05-26T13:40:24.631Z,33.91
2019-05-26T13:42:56.251Z,34.09
2019-05-26T13:45:27.989Z,33.83
2019-05-26T13:47:59.778Z,34.83
2019-05-26T13:50:31.641Z,33.39
2019-05-26T13:53:03.463Z,34.33
2019-05-26T13:55:35.436Z,34.60
2019-05-26T13:58:07.248Z,34.32
2019-05-26T14:00:39.038Z,34.37
2019-05-26T14:03:10.720Z,34.75
2019-05-26T14:05:42.391Z,35.29
2019-05-26T14:08:14.849Z,34.78
2019-05-26T14:10:46.690Z,33.85
2019-05-26T14:13:18.499Z,34.69
2019-05-26T14:15:50.897Z,34.52
2019-05-26T14:18:23.695Z,34.68
2019-05-26T14:20:57.084Z,34.80
2019-05-26T14:23:28.787Z,34.70
2019-05-26T14:26:00.548Z,34.89
2019-05-26T14:28:32.337Z,33.09
2019-05-26T14:31:04.094Z,34.93
2019-05-26T14:33:36.364Z,34.99
2019-05-26T14:36:07.891Z,34.99
2019-05-26T14:38:43.832Z,34.36
2019-05-26T14:41:15.912Z,34.44
2019-05-26T14:43:47.687Z,34.42
2019-05-26T14:46:20.677Z,34.13
2019-05-26T14:48:53.881Z,34.46
2019-05-26T14:51:25.760Z,33.80
2019-05-26T14:53:57.560Z,34.37
2019-05-26T14:56:30.951Z,34.37
2019-05-26T14:59:03.737Z,35.28
2019-05-26T15:01:36.017Z,35.54
2019-05-26T15:04:10.737Z,36.55
2019-05-26T15:06:42.494Z,35.85
2019-05-26T15:09:25.222Z,36.51
2019-05-26T15:11:52.737Z,36.75
2019-05-26T15:14:24.495Z,37.20
2019-05-26T15:16:56.255Z,36.17
2019-05-26T15:19:27.992Z,35.72
2019-05-26T15:21:59.724Z,35.69
2019-05-26T15:24:31.470Z,36.35
2019-05-26T15:27:03.293Z,35.75
2019-05-26T15:29:35.057Z,37.01
2019-05-26T15:32:07.080Z,37.04
2019-05-26T15:34:38.816Z,37.60
2019-05-26T15:37:10.553Z,37.57
2019-05-26T15:39:42.407Z,37.07
2019-05-26T15:42:14.135Z,37.15
2019-05-26T15:44:45.880Z,37.32
2019-05-26T15:47:17.609Z,37.14
2019-05-26T15:49:49.367Z,37.05
2019-05-26T15:52:21.125Z,37.11
2019-05-26T15:54:52.977Z,37.07
2019-05-26T15:57:26.261Z,36.91
2019-05-26T15:59:58.009Z,37.09
2019-05-26T16:02:33.172Z,36.36
2019-05-26T16:05:06.996Z,37.21
2019-05-26T16:07:40.070Z,37.25
2019-05-26T16:10:12.219Z,37.46
2019-05-26T16:12:44.656Z,37.74
2019-05-26T16:15:17.814Z,37.88
2019-05-26T16:17:49.486Z,37.30
2019-05-26T16:20:21.471Z,38.33
2019-05-26T16:22:53.341Z,38.18
2019-05-26T16:25:25.095Z,38.72
2019-05-26T16:27:56.841Z,38.29
2019-05-26T16:30:29.581Z,39.13
2019-05-26T16:33:01.956Z,38.34
2019-05-26T16:35:34.047Z,38.85
2019-05-26T16:38:05.917Z,38.84
2019-05-26T16:40:38.735Z,39.50
2019-05-26T16:43:10.482Z,40.11
2019-05-26T16:45:55.347Z,40.23
2019-05-26T16:48:15.849Z,40.96
2019-05-26T16:50:47.682Z,40.94
2019-05-26T16:53:19.361Z,40.42
2019-05-26T16:55:51.108Z,40.44
2019-05-26T16:58:23.165Z,41.12
2019-05-26T17:00:56.200Z,40.40
2019-05-26T17:03:28.296Z,40.29
2019-05-26T17:06:07.856Z,40.76
2019-05-26T17:08:36.112Z,39.74
2019-05-26T17:11:07.767Z,40.75
2019-05-26T17:13:43.603Z,40.51
2019-05-26T17:16:15.251Z,41.33
2019-05-26T17:18:47.146Z,41.03
2019-05-26T17:21:18.784Z,41.04
2019-05-26T17:23:52.985Z,41.03
2019-05-26T17:26:24.654Z,41.24
2019-05-26T17:28:56.600Z,41.20
2019-05-26T17:31:29.627Z,41.21
2019-05-26T17:34:01.276Z,40.90
2019-05-26T17:36:33.051Z,40.95
2019-05-26T17:39:08.252Z,41.26
2019-05-26T17:41:40.045Z,41.55
2019-05-26T17:44:11.684Z,41.45
2019-05-26T17:46:43.464Z,41.94
2019-05-26T17:49:15.367Z,42.59
2019-05-26T17:51:47.373Z,43.24
2019-05-26T17:54:20.374Z,42.83
2019-05-26T17:56:52.188Z,43.50
2019-05-26T17:59:31.670Z,43.23
2019-05-26T18:02:03.310Z,43.16
2019-05-26T18:04:35.683Z,43.88
2019-05-26T18:07:07.347Z,43.88
2019-05-26T18:09:44.071Z,44.05
2019-05-26T18:12:14.608Z,44.33
2019-05-26T18:14:47.885Z,45.25
2019-05-26T18:17:19.642Z,44.83
2019-05-26T18:19:51.413Z,45.15
2019-05-26T18:22:23.156Z,45.38
2019-05-26T18:24:58.552Z,46.19
2019-05-26T18:27:31.743Z,46.22
2019-05-26T18:30:04.775Z,46.37
2019-05-26T18:32:36.655Z,46.81
2019-05-26T18:35:09.523Z,47.17
2019-05-26T18:37:41.190Z,47.83
2019-05-26T18:40:14.385Z,47.62
2019-05-26T18:42:49.803Z,48.08
2019-05-26T18:45:21.570Z,49.05
2019-05-26T18:48:02.451Z,48.66
2019-05-26T18:50:27.712Z,48.76
2019-05-26T18:53:00.904Z,48.99
2019-05-26T18:55:34.935Z,48.96
2019-05-26T18:58:09.732Z,48.98
2019-05-26T19:00:43.714Z,49.07
2019-05-26T19:03:18.238Z,49.39
2019-05-26T19:05:51.024Z,49.98
2019-05-26T19:08:22.818Z,49.84
2019-05-26T19:11:01.343Z,49.66
2019-05-26T19:13:33.533Z,50.06
2019-05-26T19:16:06.603Z,50.31
2019-05-26T19:18:38.363Z,50.48
2019-05-26T19:21:14.956Z,50.52
2019-05-26T19:23:48.565Z,50.97
2019-05-26T19:26:21.369Z,51.36
2019-05-26T19:28:53.606Z,51.21
2019-05-26T19:31:26.578Z,51.69
2019-05-26T19:33:58.500Z,51.74
2019-05-26T19:36:30.513Z,51.60
2019-05-26T19:39:02.396Z,51.87
2019-05-26T19:41:39.258Z,52.03
2019-05-26T19:44:11.216Z,52.15
2019-05-26T19:46:44.321Z,52.31
2019-05-26T19:49:20.606Z,52.61
2019-05-26T19:51:58.489Z,52.79
2019-05-26T19:54:36.914Z,53.52
2019-05-26T19:57:11.330Z,53.49
2019-05-26T19:59:45.285Z,53.84
2019-05-26T20:02:18.743Z,53.69
2019-05-26T20:04:50.657Z,53.67
2019-05-26T20:07:22.347Z,53.82
2019-05-26T20:09:54.091Z,54.31
2019-05-26T20:12:27.785Z,54.12
2019-05-26T20:15:00.781Z,54.36
2019-05-26T20:17:36.821Z,54.62
2019-05-26T20:20:11.875Z,54.32
2019-05-26T20:22:49.058Z,54.89
2019-05-26T20:25:29.513Z,54.89
2019-05-26T20:28:08.106Z,54.98
2019-05-26T20:30:39.740Z,54.80
2019-05-26T20:33:13.500Z,55.22
2019-05-26T20:35:45.481Z,55.43
2019-05-26T20:38:17.241Z,55.66
2019-05-26T20:40:50.269Z,55.90
2019-05-26T20:43:28.909Z,56.03
2019-05-26T20:46:03.021Z,56.34
2019-05-26T20:48:35.233Z,56.26
2019-05-26T20:51:12.117Z,56.24
2019-05-26T20:53:55.520Z,56.40
2019-05-26T20:56:31.942Z,56.51
2019-05-26T20:59:06.834Z,56.92
2019-05-26T21:01:38.753Z,56.74
2019-05-26T21:04:11.871Z,57.05
2019-05-26T21:06:46.623Z,57.26
2019-05-26T21:09:18.881Z,57.41
2019-05-26T21:12:00.302Z,57.26
2019-05-26T21:14:36.273Z,57.73
2019-05-26T21:17:09.181Z,58.01
2019-05-26T21:19:42.710Z,58.88
2019-05-26T21:22:21.626Z,59.48
2019-05-26T21:24:51.271Z,59.17
2019-05-26T21:27:25.491Z,59.70
2019-05-26T21:30:03.586Z,59.53
2019-05-26T21:32:38.519Z,59.70
2019-05-26T21:35:16.552Z,60.28
2019-05-26T21:37:51.506Z,60.26
2019-05-26T21:40:23.343Z,60.20
2019-05-26T21:42:55.083Z,60.59
2019-05-26T21:45:26.820Z,60.67
2019-05-26T21:47:58.585Z,61.13
2019-05-26T21:50:31.438Z,61.30
2019-05-26T21:53:03.285Z,61.33
2019-05-26T21:55:36.173Z,61.54
2019-05-26T21:58:09.158Z,61.36
2019-05-26T22:00:42.705Z,61.13
2019-05-26T22:03:16.830Z,61.81
2019-05-26T22:05:48.559Z,62.09
2019-05-26T22:08:20.317Z,62.38
2019-05-26T22:10:53.292Z,63.97
2019-05-26T22:13:25.269Z,61.65
2019-05-26T22:15:57.108Z,58.63
2019-05-26T22:18:28.944Z,55.62
2019-05-26T22:21:03.579Z,55.27
2019-05-26T22:23:35.212Z,55.57
2019-05-26T22:26:06.971Z,56.20
2019-05-26T22:28:38.724Z,56.81
2019-05-26T22:31:13.535Z,57.27
2019-05-26T22:33:45.272Z,57.73
2019-05-26T22:36:17.007Z,58.35
2019-05-26T22:38:48.857Z,59.20
2019-05-26T22:41:20.599Z,60.44
2019-05-26T22:43:52.345Z,60.66
2019-05-26T22:46:24.073Z,61.66
2019-05-26T22:48:55.812Z,61.90
2019-05-26T22:51:27.556Z,62.32
2019-05-26T22:53:59.389Z,64.31
2019-05-26T22:56:32.694Z,62.16
2019-05-26T22:59:04.432Z,59.14
2019-05-26T23:01:36.445Z,56.28
2019-05-26T23:04:09.998Z,56.68
2019-05-26T23:06:41.838Z,57.06
2019-05-26T23:09:13.315Z,57.60
2019-05-26T23:11:46.289Z,58.24
2019-05-26T23:14:19.258Z,59.02
2019-05-26T23:16:52.245Z,60.22
2019-05-26T23:19:25.238Z,60.42
2019-05-26T23:21:58.202Z,61.81
2019-05-26T23:24:31.507Z,63.32
2019-05-26T23:27:04.947Z,64.16
2019-05-26T23:29:39.522Z,62.71
2019-05-26T23:32:12.496Z,59.42
2019-05-26T23:34:45.469Z,56.17
2019-05-26T23:37:21.559Z,56.58
2019-05-26T23:39:54.534Z,57.43
2019-05-26T23:42:27.518Z,58.83
2019-05-26T23:44:58.983Z,58.98
2019-05-26T23:47:30.822Z,59.58
2019-05-26T23:50:04.625Z,60.87
2019-05-26T23:52:36.245Z,61.35
2019-05-26T23:55:09.085Z,62.21
2019-05-26T23:57:40.722Z,64.53
